createdAt,value
2023-02-13T00:00:50.010Z,14.90
2023-02-13T00:02:52.105Z,15.95
2023-02-13T00:04:53.681Z,15.95
2023-02-13T00:06:55.373Z,13.80
2023-02-13T00:08:57.001Z,15.68
2023-02-13T00:10:59.073Z,15.02
2023-02-13T00:13:00.864Z,14.95
2023-02-13T00:15:04.828Z,15.07
2023-02-13T00:17:07.311Z,15.15
2023-02-13T00:19:10.117Z,15.20
2023-02-13T00:21:13.615Z,14.95
2023-02-13T00:23:15.172Z,16.08
2023-02-13T00:25:16.850Z,15.90
2023-02-13T00:27:18.520Z,14.93
2023-02-13T00:29:20.224Z,15.98
2023-02-13T00:31:23.371Z,12.75
2023-02-13T00:33:24.973Z,12.57
2023-02-13T00:35:27.998Z,13.55
2023-02-13T00:37:32.164Z,12.93
2023-02-13T00:39:33.967Z,12.30
2023-02-13T00:41:35.625Z,12.43
2023-02-13T00:43:37.894Z,13.85
2023-02-13T00:45:39.726Z,13.10
2023-02-13T00:47:47.384Z,13.50
2023-02-13T00:49:48.895Z,12.52
2023-02-13T00:51:50.684Z,13.38
2023-02-13T00:53:52.452Z,12.98
2023-02-13T00:55:54.554Z,13.13
2023-02-13T00:57:56.152Z,14.75
2023-02-13T00:59:58.082Z,13.30
2023-02-13T01:01:59.803Z,12.77
2023-02-13T01:04:02.907Z,15.25
2023-02-13T01:06:05.347Z,13.50
2023-02-13T01:08:07.733Z,13.38
2023-02-13T01:10:09.834Z,13.65
2023-02-13T01:12:11.426Z,13.45
2023-02-13T01:14:13.003Z,13.52
2023-02-13T01:16:15.700Z,14.48
2023-02-13T01:18:19.731Z,13.77
2023-02-13T01:20:23.739Z,15.45
2023-02-13T01:22:25.438Z,12.55
2023-02-13T01:24:27.585Z,12.68
2023-02-13T01:26:29.260Z,13.02
2023-02-13T01:28:30.900Z,12.35
2023-02-13T01:30:32.852Z,13.63
2023-02-13T01:32:34.589Z,13.32
2023-02-13T01:34:36.188Z,12.65
2023-02-13T01:36:39.234Z,14.13
2023-02-13T01:38:41.302Z,14.10
2023-02-13T01:40:47.134Z,14.20
2023-02-13T01:42:48.768Z,12.88
2023-02-13T01:44:52.849Z,13.95
2023-02-13T01:46:54.455Z,12.55
2023-02-13T01:49:01.177Z,13.80
2023-02-13T01:51:06.705Z,13.88
2023-02-13T01:53:14.037Z,13.45
2023-02-13T01:55:16.462Z,12.85
2023-02-13T01:57:23.048Z,13.95
2023-02-13T01:59:29.575Z,14.85
2023-02-13T02:01:32.466Z,14.18
2023-02-13T02:03:38.648Z,13.68
2023-02-13T02:05:40.393Z,12.98
2023-02-13T02:07:42.747Z,13.77
2023-02-13T02:09:46.263Z,13.00
2023-02-13T02:11:53.030Z,16.05
2023-02-13T02:13:56.077Z,13.68
2023-02-13T02:15:57.886Z,13.65
2023-02-13T02:17:59.997Z,13.57
2023-02-13T02:20:15.251Z,13.13
2023-02-13T02:22:44.890Z,14.35
2023-02-13T02:25:12.009Z,12.82
2023-02-13T02:27:56.191Z,12.75
2023-02-13T02:30:33.428Z,13.35
2023-02-13T02:32:56.344Z,15.38
2023-02-13T02:35:13.109Z,13.25
2023-02-13T02:37:30.637Z,12.07
2023-02-13T02:39:44.096Z,12.52
2023-02-13T02:41:58.234Z,12.13
2023-02-13T02:44:07.912Z,11.65
2023-02-13T02:46:17.800Z,11.93
2023-02-13T02:48:31.916Z,18.75
2023-02-13T02:50:38.258Z,12.73
2023-02-13T02:52:45.895Z,15.88
2023-02-13T02:54:53.998Z,12.30
2023-02-13T02:57:00.655Z,10.18
2023-02-13T02:59:06.317Z,12.80
2023-02-13T03:01:12.838Z,13.27
2023-02-13T03:03:18.472Z,11.93
2023-02-13T03:05:27.303Z,11.10
2023-02-13T03:07:29.054Z,12.40
2023-02-13T03:09:37.269Z,13.73
2023-02-13T03:11:41.470Z,12.32
2023-02-13T03:13:47.854Z,13.75
2023-02-13T03:15:52.132Z,12.35
2023-02-13T03:17:54.967Z,12.63
2023-02-13T03:20:03.686Z,12.20
2023-02-13T03:22:16.288Z,13.18
2023-02-13T03:24:26.002Z,11.68
2023-02-13T03:26:44.147Z,11.20
2023-02-13T03:28:52.690Z,13.88
2023-02-13T03:31:01.666Z,12.05
2023-02-13T03:33:17.974Z,13.43
2023-02-13T03:35:32.563Z,12.35
2023-02-13T03:37:44.583Z,12.73
2023-02-13T03:39:54.452Z,12.50
2023-02-13T03:42:00.617Z,12.80
2023-02-13T03:44:11.282Z,12.85
2023-02-13T03:46:15.134Z,15.35
2023-02-13T03:48:20.050Z,19.23
2023-02-13T03:50:22.575Z,16.33
2023-02-13T03:52:29.234Z,17.52
2023-02-13T03:54:37.812Z,18.95
2023-02-13T03:56:41.467Z,16.67
2023-02-13T03:58:46.522Z,16.67
2023-02-13T04:00:50.724Z,14.02
2023-02-13T04:03:00.994Z,14.18
2023-02-13T04:05:09.518Z,15.02
2023-02-13T04:07:14.032Z,14.80
2023-02-13T04:09:15.941Z,14.20
2023-02-13T04:11:25.193Z,14.23
2023-02-13T04:13:31.620Z,13.15
2023-02-13T04:15:39.144Z,13.52
2023-02-13T04:17:45.798Z,12.40
2023-02-13T04:19:47.992Z,13.10
2023-02-13T04:21:55.797Z,13.10
2023-02-13T04:23:57.377Z,13.93
2023-02-13T04:26:02.276Z,12.25
2023-02-13T04:28:05.992Z,12.75
2023-02-13T04:32:24.564Z,12.88
2023-02-13T04:34:26.186Z,13.18
2023-02-13T04:36:27.875Z,13.38
2023-02-13T04:38:29.494Z,14.43
2023-02-13T04:40:32.053Z,13.82
2023-02-13T04:42:34.841Z,12.13
2023-02-13T04:44:37.754Z,13.63
2023-02-13T04:46:39.525Z,16.83
2023-02-13T04:48:41.263Z,16.02
2023-02-13T04:50:42.826Z,17.42
2023-02-13T04:52:44.448Z,14.55
2023-02-13T04:54:46.071Z,19.08
2023-02-13T04:56:47.685Z,18.25
2023-02-13T04:58:49.324Z,16.75
2023-02-13T05:00:52.396Z,14.65
2023-02-13T05:02:54.895Z,16.92
2023-02-13T05:04:56.547Z,16.73
2023-02-13T05:06:58.254Z,25.13
2023-02-13T05:08:59.837Z,19.45
2023-02-13T05:11:01.546Z,18.85
2023-02-13T05:13:03.181Z,23.92
2023-02-13T05:15:05.912Z,20.38
2023-02-13T05:17:09.057Z,17.20
2023-02-13T05:19:10.881Z,16.60
2023-02-13T05:21:12.602Z,14.43
2023-02-13T05:23:15.055Z,13.43
2023-02-13T05:25:16.819Z,12.90
2023-02-13T05:27:18.359Z,12.68
2023-02-13T05:29:20.219Z,12.18
2023-02-13T05:31:21.965Z,13.55
2023-02-13T05:33:25.307Z,13.68
2023-02-13T05:35:26.834Z,13.68
2023-02-13T05:37:28.389Z,15.75
2023-02-13T05:39:29.909Z,14.88
2023-02-13T05:41:31.476Z,14.63
2023-02-13T05:43:33.083Z,13.75
2023-02-13T05:45:34.659Z,15.15
2023-02-13T05:47:36.588Z,17.30
2023-02-13T05:49:39.760Z,14.50
2023-02-13T05:51:42.020Z,15.18
2023-02-13T05:53:43.642Z,17.30
2023-02-13T05:55:45.294Z,14.55
2023-02-13T05:57:46.818Z,15.35
2023-02-13T05:59:48.514Z,14.63
2023-02-13T06:01:50.114Z,13.65
2023-02-13T06:03:51.734Z,14.40
2023-02-13T06:05:55.428Z,14.43
2023-02-13T06:07:57.036Z,13.13
2023-02-13T06:09:58.619Z,15.00
2023-02-13T06:12:00.261Z,12.63
2023-02-13T06:14:01.816Z,13.73
2023-02-13T06:16:03.710Z,13.10
2023-02-13T06:18:05.667Z,13.90
2023-02-13T06:20:08.653Z,12.00
2023-02-13T06:22:11.543Z,13.63
2023-02-13T06:24:13.155Z,12.77
2023-02-13T06:26:14.854Z,12.82
2023-02-13T06:28:16.687Z,12.60
2023-02-13T06:30:19.011Z,14.32
2023-02-13T06:32:20.618Z,13.95
2023-02-13T06:34:22.298Z,14.00
2023-02-13T06:36:23.833Z,13.10
2023-02-13T06:38:26.860Z,14.65
2023-02-13T06:40:28.744Z,17.70
2023-02-13T06:42:30.359Z,18.40
2023-02-13T06:44:31.958Z,19.67
2023-02-13T06:46:33.818Z,19.20
2023-02-13T06:48:35.692Z,16.33
2023-02-13T06:50:37.285Z,13.88
2023-02-13T06:52:38.933Z,14.70
2023-02-13T06:54:47.671Z,23.67
2023-02-13T06:56:49.598Z,18.80
2023-02-13T06:58:51.164Z,16.67
2023-02-13T07:00:53.203Z,19.85
2023-02-13T07:02:54.877Z,17.10
2023-02-13T07:04:56.496Z,18.23
2023-02-13T07:06:58.141Z,17.70
2023-02-13T07:09:01.300Z,17.08
2023-02-13T07:11:04.574Z,16.73
2023-02-13T07:13:06.776Z,18.38
2023-02-13T07:15:09.259Z,20.30
2023-02-13T07:17:13.113Z,21.45
2023-02-13T07:19:14.830Z,20.65
2023-02-13T07:21:16.488Z,17.55
2023-02-13T07:23:18.102Z,16.95
2023-02-13T07:25:19.890Z,19.20
2023-02-13T07:27:22.926Z,18.30
2023-02-13T07:29:24.568Z,18.00
2023-02-13T07:31:26.257Z,17.38
2023-02-13T07:33:27.903Z,19.00
2023-02-13T07:35:29.868Z,19.65
2023-02-13T07:37:31.761Z,21.13
2023-02-13T07:39:33.350Z,19.73
2023-02-13T07:41:35.020Z,20.05
2023-02-13T07:43:38.066Z,20.13
2023-02-13T07:45:39.726Z,19.33
2023-02-13T07:47:41.381Z,17.98
2023-02-13T07:49:42.982Z,22.75
2023-02-13T07:51:44.579Z,22.15
2023-02-13T07:53:46.509Z,29.58
2023-02-13T07:55:48.192Z,28.40
2023-02-13T07:57:50.208Z,28.02
2023-02-13T07:59:53.287Z,28.08
2023-02-13T08:01:54.830Z,24.15
2023-02-13T08:03:56.544Z,27.35
2023-02-13T08:05:58.459Z,27.92
2023-02-13T08:08:00.417Z,29.83
2023-02-13T08:10:02.359Z,28.20
2023-02-13T08:12:06.972Z,24.20
2023-02-13T08:14:08.642Z,24.05
2023-02-13T08:16:11.593Z,21.90
2023-02-13T08:18:13.242Z,23.70
2023-02-13T08:20:14.925Z,21.33
2023-02-13T08:22:16.604Z,21.33
2023-02-13T08:24:18.270Z,19.42
2023-02-13T08:26:19.844Z,20.40
2023-02-13T08:28:21.599Z,20.83
2023-02-13T08:30:23.523Z,21.23
2023-02-13T08:32:26.504Z,22.00
2023-02-13T08:34:28.094Z,20.25
2023-02-13T08:36:38.465Z,21.30
2023-02-13T08:40:42.633Z,20.20
2023-02-13T08:42:44.198Z,20.05
2023-02-13T08:44:45.769Z,21.17
2023-02-13T08:46:47.393Z,21.63
2023-02-13T08:48:51.171Z,21.63
2023-02-13T08:50:52.637Z,22.83
2023-02-13T08:52:54.227Z,22.20
2023-02-13T08:54:55.836Z,21.83
2023-02-13T08:56:58.689Z,22.80
2023-02-13T08:59:00.446Z,21.33
2023-02-13T09:01:05.139Z,23.05
2023-02-13T09:03:08.487Z,21.05
2023-02-13T09:05:12.245Z,21.05
2023-02-13T09:07:13.822Z,21.95
2023-02-13T09:09:15.433Z,22.58
2023-02-13T09:11:17.059Z,28.20
2023-02-13T09:13:18.659Z,23.50
2023-02-13T09:15:20.765Z,23.02
2023-02-13T09:17:22.394Z,22.00
2023-02-13T09:19:24.013Z,23.10
2023-02-13T09:21:26.915Z,24.73
2023-02-13T09:23:31.796Z,24.23
2023-02-13T09:25:33.330Z,22.77
2023-02-13T09:27:35.303Z,24.02
2023-02-13T09:29:37.077Z,23.95
2023-02-13T09:31:38.860Z,25.52
2023-02-13T09:33:40.631Z,25.60
2023-02-13T09:35:42.192Z,25.33
2023-02-13T09:37:45.400Z,25.73
2023-02-13T09:39:47.071Z,24.13
2023-02-13T09:41:52.002Z,26.23
2023-02-13T09:43:57.842Z,25.25
2023-02-13T09:46:04.908Z,23.90
2023-02-13T09:48:10.428Z,22.85
2023-02-13T09:50:16.371Z,23.05
2023-02-13T09:52:17.973Z,21.45
2023-02-13T09:54:20.950Z,24.35
2023-02-13T09:56:35.789Z,23.38
2023-02-13T09:58:45.886Z,23.77
2023-02-13T10:00:53.621Z,23.10
2023-02-13T10:03:20.121Z,21.93
2023-02-13T10:05:41.505Z,20.45
2023-02-13T10:07:48.376Z,21.85
2023-02-13T10:10:01.962Z,21.65
2023-02-13T10:12:39.050Z,21.75
2023-02-13T10:14:50.433Z,20.57
2023-02-13T10:16:56.692Z,20.57
2023-02-13T10:19:04.556Z,22.87
2023-02-13T10:21:08.018Z,22.50
2023-02-13T10:23:21.043Z,20.23
2023-02-13T10:25:27.587Z,22.75
2023-02-13T10:27:34.551Z,21.10
2023-02-13T10:29:45.494Z,22.53
2023-02-13T10:31:49.626Z,22.97
2023-02-13T10:33:53.140Z,22.20
2023-02-13T10:36:00.905Z,23.50
2023-02-13T10:38:12.436Z,22.17
2023-02-13T10:40:14.848Z,22.17
2023-02-13T10:42:36.659Z,24.63
2023-02-13T10:44:50.561Z,23.13
2023-02-13T10:47:02.564Z,22.20
2023-02-13T10:49:27.903Z,21.97
2023-02-13T10:51:33.574Z,19.93
2023-02-13T10:53:50.926Z,21.00
2023-02-13T10:56:05.851Z,20.43
2023-02-13T10:58:16.636Z,21.00
2023-02-13T11:00:25.638Z,19.07
2023-02-13T11:02:28.510Z,18.10
2023-02-13T11:04:30.251Z,19.93
2023-02-13T11:06:37.137Z,21.63
2023-02-13T11:08:41.712Z,21.30
2023-02-13T11:10:43.368Z,21.40
2023-02-13T11:12:46.237Z,23.23
2023-02-13T11:14:57.006Z,22.40
2023-02-13T11:17:01.217Z,22.37
2023-02-13T11:19:02.922Z,21.93
2023-02-13T11:21:10.306Z,24.20
2023-02-13T11:23:33.256Z,22.90
2023-02-13T11:25:35.126Z,20.97
2023-02-13T11:27:39.533Z,20.40
2023-02-13T11:29:53.377Z,23.13
2023-02-13T11:32:06.962Z,21.87
2023-02-13T11:34:26.353Z,22.80
2023-02-13T11:36:29.841Z,25.63
2023-02-13T11:38:31.573Z,22.90
2023-02-13T11:40:33.375Z,22.27
2023-02-13T11:42:36.621Z,23.70
2023-02-13T11:44:38.450Z,22.07
2023-02-13T11:46:47.314Z,21.43
2023-02-13T11:49:18.854Z,21.80
2023-02-13T11:51:20.588Z,23.43
2023-02-13T11:53:25.150Z,25.67
2023-02-13T11:55:31.785Z,25.90
2023-02-13T11:57:35.139Z,24.50
2023-02-13T11:59:42.397Z,25.13
2023-02-13T12:01:44.463Z,23.43
2023-02-13T12:03:58.241Z,24.20
2023-02-13T12:06:04.816Z,23.10
2023-02-13T12:08:09.578Z,24.10
2023-02-13T12:10:21.390Z,23.50
2023-02-13T12:12:28.933Z,24.00
2023-02-13T12:14:36.947Z,23.20
2023-02-13T12:16:43.170Z,23.03
2023-02-13T12:18:49.166Z,22.10
2023-02-13T12:21:00.492Z,23.90
2023-02-13T12:23:18.764Z,26.07
2023-02-13T12:25:39.896Z,25.27
2023-02-13T12:27:51.493Z,25.00
2023-02-13T12:30:14.474Z,28.10
2023-02-13T12:32:19.830Z,27.70
2023-02-13T12:34:51.200Z,26.60
2023-02-13T12:37:06.248Z,25.60
2023-02-13T12:39:17.933Z,27.33
2023-02-13T12:41:22.516Z,24.83
2023-02-13T12:43:43.671Z,25.53
2023-02-13T12:45:51.566Z,25.10
2023-02-13T12:48:10.623Z,25.10
2023-02-13T12:50:31.174Z,24.43
2023-02-13T12:52:51.194Z,26.53
2023-02-13T12:55:06.290Z,25.90
2023-02-13T12:57:19.605Z,26.00
2023-02-13T12:59:33.296Z,26.00
2023-02-13T13:01:57.568Z,25.70
2023-02-13T13:04:14.397Z,24.27
2023-02-13T13:06:38.770Z,25.43
2023-02-13T13:09:10.120Z,27.00
2023-02-13T13:11:29.256Z,26.90
2023-02-13T13:13:44.915Z,26.53
2023-02-13T13:15:53.629Z,27.00
2023-02-13T13:18:05.842Z,26.73
2023-02-13T13:20:28.922Z,26.13
2023-02-13T13:22:34.641Z,27.27
2023-02-13T13:24:48.827Z,26.40
2023-02-13T13:26:53.403Z,26.80
2023-02-13T13:28:58.130Z,27.60
2023-02-13T13:31:01.107Z,27.17
2023-02-13T13:33:06.748Z,27.40
2023-02-13T13:35:14.080Z,26.17
2023-02-13T13:37:25.616Z,26.80
2023-02-13T13:39:40.151Z,26.00
2023-02-13T13:41:49.511Z,26.33
2023-02-13T13:44:03.263Z,25.70
2023-02-13T13:46:11.375Z,23.90
2023-02-13T13:48:35.961Z,25.53
2023-02-13T13:50:40.816Z,26.27
2023-02-13T13:53:08.956Z,25.23
2023-02-13T13:55:49.428Z,27.43
2023-02-13T13:58:00.669Z,26.00
2023-02-13T14:00:27.922Z,27.00
2023-02-13T14:02:45.265Z,25.57
2023-02-13T14:05:02.256Z,27.37
2023-02-13T14:07:24.145Z,26.13
2023-02-13T14:09:40.948Z,25.57
2023-02-13T14:11:46.776Z,25.13
2023-02-13T14:13:48.722Z,24.80
2023-02-13T14:15:52.740Z,25.27
2023-02-13T14:17:55.167Z,25.17
2023-02-13T14:19:56.997Z,24.20
2023-02-13T14:22:26.584Z,26.20
2023-02-13T14:24:28.274Z,26.10
2023-02-13T14:26:39.703Z,24.60
2023-02-13T14:28:42.958Z,25.87
2023-02-13T14:30:45.142Z,24.63
2023-02-13T14:32:46.826Z,25.37
2023-02-13T14:34:55.341Z,29.50
2023-02-13T14:37:13.534Z,25.87
2023-02-13T14:39:28.002Z,23.30
2023-02-13T14:41:56.956Z,23.27
2023-02-13T14:43:58.689Z,21.70
2023-02-13T14:46:08.685Z,24.10
2023-02-13T14:48:14.317Z,22.87
2023-02-13T14:50:21.168Z,21.73
2023-02-13T14:52:25.252Z,22.63
2023-02-13T14:54:31.945Z,22.30
2023-02-13T14:56:33.762Z,23.10
2023-02-13T14:58:48.447Z,22.70
2023-02-13T15:00:54.882Z,22.93
2023-02-13T15:03:02.313Z,22.60
2023-02-13T15:05:07.211Z,21.57
2023-02-13T15:07:15.928Z,22.43
2023-02-13T15:09:23.971Z,21.37
2023-02-13T15:11:37.313Z,22.83
2023-02-13T15:13:40.200Z,22.23
2023-02-13T15:15:42.195Z,22.40
2023-02-13T15:17:43.850Z,21.43
2023-02-13T15:19:47.761Z,21.90
2023-02-13T15:21:53.505Z,23.37
2023-02-13T15:23:56.856Z,22.57
2023-02-13T15:25:59.982Z,21.10
2023-02-13T15:28:03.665Z,24.77
2023-02-13T15:30:19.669Z,23.40
2023-02-13T15:32:27.391Z,21.77
2023-02-13T15:34:30.748Z,21.30
2023-02-13T15:36:39.486Z,22.33
2023-02-13T15:38:41.244Z,21.70
2023-02-13T15:40:44.502Z,21.27
2023-02-13T15:42:46.090Z,22.67
2023-02-13T15:44:50.044Z,21.20
2023-02-13T15:46:55.158Z,18.93
2023-02-13T15:49:00.702Z,21.90
2023-02-13T15:51:02.745Z,21.00
2023-02-13T15:53:09.855Z,21.07
2023-02-13T15:55:19.520Z,20.40
2023-02-13T15:57:22.573Z,20.93
2023-02-13T15:59:29.441Z,21.60
2023-02-13T16:01:31.787Z,18.80
2023-02-13T16:03:36.005Z,19.60
2023-02-13T16:05:41.063Z,20.23
2023-02-13T16:07:51.631Z,20.00
2023-02-13T16:10:16.444Z,18.47
2023-02-13T16:12:24.155Z,19.37
2023-02-13T16:14:27.362Z,22.27
2023-02-13T16:16:33.883Z,20.60
2023-02-13T16:18:40.086Z,20.70
2023-02-13T16:20:41.660Z,21.77
2023-02-13T16:22:46.253Z,20.50
2023-02-13T16:24:50.794Z,19.90
2023-02-13T16:26:53.345Z,19.97
2023-02-13T16:28:55.235Z,21.30
2023-02-13T16:31:00.168Z,21.17
2023-02-13T16:33:27.876Z,21.13
2023-02-13T16:35:36.675Z,21.37
2023-02-13T16:37:50.565Z,23.00
2023-02-13T16:39:52.330Z,20.37
2023-02-13T16:41:54.121Z,19.73
2023-02-13T16:43:56.414Z,19.53
2023-02-13T16:46:11.458Z,20.10
2023-02-13T16:48:15.519Z,20.67
2023-02-13T16:50:17.359Z,18.90
2023-02-13T16:52:22.821Z,19.70
2023-02-13T16:54:39.543Z,18.93
2023-02-13T16:56:44.180Z,19.57
2023-02-13T16:58:45.833Z,18.00
2023-02-13T17:00:50.135Z,20.03
2023-02-13T17:02:51.799Z,20.07
2023-02-13T17:04:55.703Z,22.20
2023-02-13T17:06:57.360Z,23.90
2023-02-13T17:09:00.298Z,23.00
2023-02-13T17:11:03.888Z,26.43
2023-02-13T17:13:15.154Z,25.03
2023-02-13T17:15:18.924Z,39.60
2023-02-13T17:17:22.278Z,33.40
2023-02-13T17:19:23.999Z,29.43
2023-02-13T17:21:25.606Z,26.07
2023-02-13T17:23:27.245Z,25.20
2023-02-13T17:25:31.837Z,23.90
2023-02-13T17:27:33.583Z,28.03
2023-02-13T17:29:35.196Z,29.80
2023-02-13T17:31:37.064Z,30.60
2023-02-13T17:33:39.408Z,30.70
2023-02-13T17:35:41.058Z,31.07
2023-02-13T17:37:44.135Z,30.83
2023-02-13T17:39:46.380Z,32.77
2023-02-13T17:41:49.365Z,30.43
2023-02-13T17:43:50.971Z,30.97
2023-02-13T17:45:52.660Z,31.47
2023-02-13T17:47:54.398Z,30.97
2023-02-13T17:50:08.532Z,30.83
2023-02-13T17:52:15.464Z,29.07
2023-02-13T17:54:17.130Z,30.30
2023-02-13T17:56:18.792Z,31.30
2023-02-13T17:58:21.858Z,33.43
2023-02-13T18:00:25.757Z,34.03
2023-02-13T18:02:27.385Z,30.73
2023-02-13T18:04:29.064Z,33.20
2023-02-13T18:06:31.124Z,33.27
2023-02-13T18:08:32.844Z,36.40
2023-02-13T18:10:37.126Z,31.25
2023-02-13T18:12:38.952Z,29.60
2023-02-13T18:14:42.375Z,28.37
2023-02-13T18:16:44.171Z,27.90
2023-02-13T18:18:45.954Z,29.08
2023-02-13T18:20:55.041Z,30.02
2023-02-13T18:22:56.888Z,29.75
2023-02-13T18:24:58.444Z,33.97
2023-02-13T18:27:00.169Z,34.42
2023-02-13T18:29:01.765Z,31.55
2023-02-13T18:31:05.074Z,28.10
2023-02-13T18:33:06.736Z,25.73
2023-02-13T18:35:08.720Z,24.08
2023-02-13T18:37:10.322Z,33.53
2023-02-13T18:39:11.986Z,30.47
2023-02-13T18:41:13.666Z,33.73
2023-02-13T18:43:15.474Z,39.33
2023-02-13T18:45:17.351Z,35.87
2023-02-13T18:47:22.255Z,35.08
2023-02-13T18:49:24.429Z,29.60
2023-02-13T18:51:26.231Z,27.27
2023-02-13T18:53:28.577Z,23.70
2023-02-13T18:55:30.152Z,23.73
2023-02-13T18:57:31.696Z,23.77
2023-02-13T18:59:33.231Z,24.70
2023-02-13T19:01:34.999Z,21.00
2023-02-13T19:03:38.979Z,20.58
2023-02-13T19:05:40.712Z,20.35
2023-02-13T19:07:44.603Z,19.05
2023-02-13T19:09:46.229Z,20.45
2023-02-13T19:11:47.900Z,17.67
2023-02-13T19:13:53.685Z,21.25
2023-02-13T19:15:55.390Z,19.02
2023-02-13T19:17:56.985Z,19.58
2023-02-13T19:19:59.992Z,18.25
2023-02-13T19:22:01.672Z,14.47
2023-02-13T19:24:05.103Z,14.40
2023-02-13T19:26:07.634Z,17.60
2023-02-13T19:28:22.450Z,26.85
2023-02-13T19:30:24.360Z,28.13
2023-02-13T19:32:26.023Z,22.40
2023-02-13T19:34:27.716Z,20.52
2023-02-13T19:36:30.831Z,17.73
2023-02-13T19:38:32.456Z,16.20
2023-02-13T19:40:34.508Z,15.23
2023-02-13T19:42:36.113Z,13.67
2023-02-13T19:44:37.688Z,15.70
2023-02-13T19:46:39.469Z,15.10
2023-02-13T19:48:41.592Z,13.30
2023-02-13T19:50:43.388Z,12.88
2023-02-13T19:52:46.353Z,14.43
2023-02-13T19:54:48.316Z,15.65
2023-02-13T19:56:49.963Z,14.15
2023-02-13T19:58:51.570Z,14.20
2023-02-13T20:00:53.360Z,16.40
2023-02-13T20:03:00.268Z,15.38
2023-02-13T20:05:01.954Z,15.50
2023-02-13T20:07:03.707Z,18.75
2023-02-13T20:09:10.485Z,16.70
2023-02-13T20:11:14.284Z,14.75
2023-02-13T20:13:15.936Z,14.20
2023-02-13T20:15:17.678Z,14.83
2023-02-13T20:17:19.432Z,15.32
2023-02-13T20:19:22.266Z,16.20
2023-02-13T20:21:24.030Z,14.95
2023-02-13T20:23:25.785Z,14.80
2023-02-13T20:25:28.788Z,15.75
2023-02-13T20:27:30.502Z,14.60
2023-02-13T20:29:32.150Z,14.93
2023-02-13T20:31:34.034Z,13.75
2023-02-13T20:33:36.103Z,12.68
2023-02-13T20:35:37.866Z,13.40
2023-02-13T20:37:39.605Z,13.27
2023-02-13T20:39:41.340Z,12.15
2023-02-13T20:41:44.426Z,13.45
2023-02-13T20:43:46.485Z,10.67
2023-02-13T20:45:48.186Z,11.95
2023-02-13T20:47:49.975Z,11.27
2023-02-13T20:49:51.745Z,14.40
2023-02-13T20:51:53.674Z,13.40
2023-02-13T20:53:55.531Z,12.40
2023-02-13T20:56:03.234Z,12.50
2023-02-13T20:58:06.341Z,14.77
2023-02-13T21:00:09.787Z,14.60
2023-02-13T21:02:12.468Z,15.65
2023-02-13T21:04:14.227Z,13.02
2023-02-13T21:06:16.717Z,14.60
2023-02-13T21:08:18.676Z,15.15
2023-02-13T21:10:20.679Z,14.05
2023-02-13T21:12:22.400Z,13.75
2023-02-13T21:14:25.399Z,14.50
2023-02-13T21:16:29.503Z,12.75
2023-02-13T21:18:31.795Z,15.35
2023-02-13T21:20:33.500Z,17.48
2023-02-13T21:22:36.820Z,15.27
2023-02-13T21:24:39.932Z,15.43
2023-02-13T21:26:42.325Z,13.93
2023-02-13T21:28:45.479Z,14.80
2023-02-13T21:30:51.178Z,15.20
2023-02-13T21:32:52.902Z,15.90
2023-02-13T21:34:55.293Z,15.18
2023-02-13T21:36:57.330Z,14.63
2023-02-13T21:38:59.903Z,15.55
2023-02-13T21:41:05.893Z,14.40
2023-02-13T21:43:07.557Z,13.40
2023-02-13T21:45:09.776Z,14.25
2023-02-13T21:47:12.972Z,13.65
2023-02-13T21:49:16.918Z,14.27
2023-02-13T21:51:20.017Z,13.80
2023-02-13T21:53:21.698Z,14.85
2023-02-13T21:55:23.500Z,15.75
2023-02-13T21:57:25.256Z,14.20
2023-02-13T21:59:27.221Z,14.57
2023-02-13T22:01:31.238Z,13.68
2023-02-13T22:03:34.257Z,20.63
2023-02-13T22:05:36.013Z,13.63
2023-02-13T22:07:37.654Z,14.60
2023-02-13T22:09:39.353Z,12.45
2023-02-13T22:11:41.057Z,13.27
2023-02-13T22:13:42.714Z,13.07
2023-02-13T22:15:44.356Z,13.52
2023-02-13T22:17:45.959Z,13.02
2023-02-13T22:19:49.012Z,11.95
2023-02-13T22:21:50.925Z,13.10
2023-02-13T22:23:53.102Z,12.57
2023-02-13T22:25:54.802Z,13.98
2023-02-13T22:27:57.776Z,13.88
2023-02-13T22:29:59.610Z,13.40
2023-02-13T22:32:01.474Z,13.80
2023-02-13T22:34:05.356Z,12.35
2023-02-13T22:36:11.278Z,13.23
2023-02-13T22:38:13.158Z,11.45
2023-02-13T22:40:14.845Z,11.73
2023-02-13T22:42:16.554Z,12.63
2023-02-13T22:44:18.186Z,13.82
2023-02-13T22:46:22.005Z,13.02
2023-02-13T22:48:23.629Z,12.00
2023-02-13T22:50:28.306Z,13.32
2023-02-13T22:52:31.273Z,11.90
2023-02-13T22:56:48.455Z,10.85
2023-02-13T22:58:50.085Z,12.18
2023-02-13T23:00:51.902Z,12.25
2023-02-13T23:02:53.567Z,11.38
2023-02-13T23:04:55.372Z,12.32
2023-02-13T23:06:57.222Z,12.40
2023-02-13T23:09:00.481Z,13.80
2023-02-13T23:11:13.372Z,13.25
2023-02-13T23:13:15.211Z,13.02
2023-02-13T23:15:16.866Z,13.73
2023-02-13T23:17:18.544Z,13.88
2023-02-13T23:19:20.466Z,13.80
2023-02-13T23:21:22.924Z,13.38
2023-02-13T23:23:24.499Z,13.32
2023-02-13T23:25:27.649Z,14.20
2023-02-13T23:27:32.166Z,14.32
2023-02-13T23:29:33.802Z,15.05
2023-02-13T23:31:35.637Z,13.32
2023-02-13T23:33:37.562Z,14.88
2023-02-13T23:35:39.206Z,15.50
2023-02-13T23:37:41.287Z,14.13
2023-02-13T23:39:43.155Z,13.75
2023-02-13T23:41:46.193Z,14.80
2023-02-13T23:43:47.821Z,15.32
2023-02-13T23:45:49.406Z,16.70
2023-02-13T23:47:51.088Z,16.85
2023-02-13T23:49:52.723Z,16.20
2023-02-13T23:51:54.656Z,16.45
2023-02-13T23:53:56.853Z,17.35
2023-02-13T23:55:58.548Z,25.30
2023-02-13T23:58:02.014Z,23.42
